createdAt,value
2018-03-27T00:00:56.280Z,86.19
2018-03-27T00:03:23.698Z,86.05
2018-03-27T00:05:51.053Z,85.89
2018-03-27T00:08:18.448Z,85.62
2018-03-27T00:10:45.832Z,85.63
2018-03-27T00:13:13.220Z,85.30
2018-03-27T00:15:40.605Z,85.32
2018-03-27T00:18:07.997Z,85.23
2018-03-27T00:20:35.403Z,85.20
2018-03-27T00:23:02.788Z,85.44
2018-03-27T00:25:30.179Z,85.51
2018-03-27T00:28:09.209Z,85.39
2018-03-27T00:30:48.365Z,84.98
2018-03-27T00:33:27.327Z,84.83
2018-03-27T00:36:06.512Z,84.72
2018-03-27T00:38:45.768Z,84.57
2018-03-27T00:44:26.064Z,85.25
2018-03-27T00:46:53.479Z,85.39
2018-03-27T00:49:20.864Z,85.47
2018-03-27T00:51:48.240Z,85.56
2018-03-27T00:54:15.632Z,85.61
2018-03-27T00:56:43.021Z,85.80
2018-03-27T00:59:10.408Z,85.96
2018-03-27T01:01:37.793Z,85.96
2018-03-27T01:04:05.188Z,85.97
2018-03-27T01:06:32.572Z,86.20
2018-03-27T01:08:59.954Z,86.33
2018-03-27T01:11:27.348Z,86.36
2018-03-27T01:13:56.977Z,86.35
2018-03-27T01:16:24.364Z,86.22
2018-03-27T01:18:51.744Z,86.51
2018-03-27T01:21:19.136Z,86.63
2018-03-27T01:23:46.520Z,86.45
2018-03-27T01:26:13.905Z,86.24
2018-03-27T01:28:41.301Z,86.63
2018-03-27T01:31:08.676Z,86.99
2018-03-27T01:33:36.071Z,87.31
2018-03-27T01:36:03.453Z,87.46
2018-03-27T01:38:30.837Z,87.36
2018-03-27T01:40:58.220Z,87.53
2018-03-27T01:43:25.612Z,87.46
2018-03-27T01:45:52.992Z,87.29
2018-03-27T01:48:20.375Z,87.47
2018-03-27T01:50:47.760Z,87.72
2018-03-27T01:53:15.144Z,87.72
2018-03-27T01:55:42.540Z,87.93
2018-03-27T01:58:09.920Z,88.40
2018-03-27T02:00:37.305Z,88.89
2018-03-27T02:03:04.692Z,88.71
2018-03-27T02:05:32.072Z,88.64
2018-03-27T02:07:59.452Z,88.53
2018-03-27T02:10:26.848Z,88.47
2018-03-27T02:12:59.901Z,88.47
2018-03-27T02:15:32.812Z,88.36
2018-03-27T02:18:05.864Z,88.56
2018-03-27T02:20:38.866Z,88.66
2018-03-27T02:23:12.180Z,88.93
2018-03-27T02:25:39.576Z,89.38
2018-03-27T02:28:06.963Z,90.07
2018-03-27T02:30:34.344Z,89.75
2018-03-27T02:33:01.741Z,89.28
2018-03-27T02:35:29.117Z,89.21
2018-03-27T02:37:56.533Z,89.31
2018-03-27T02:40:23.917Z,89.50
2018-03-27T02:42:51.300Z,89.60
2018-03-27T02:45:18.688Z,90.76
2018-03-27T02:47:46.087Z,90.22
2018-03-27T02:50:13.471Z,89.43
2018-03-27T02:52:40.849Z,89.24
2018-03-27T02:55:08.240Z,89.39
2018-03-27T02:57:35.628Z,89.46
2018-03-27T03:00:03.040Z,90.22
2018-03-27T03:02:30.436Z,91.40
2018-03-27T03:04:57.823Z,90.81
2018-03-27T03:07:25.216Z,90.54
2018-03-27T03:09:52.602Z,90.30
2018-03-27T03:12:19.999Z,90.08
2018-03-27T03:14:47.392Z,89.98
2018-03-27T03:17:14.781Z,89.98
2018-03-27T03:19:42.173Z,89.89
2018-03-27T03:22:09.576Z,90.23
2018-03-27T03:24:36.969Z,90.48
2018-03-27T03:27:04.361Z,90.57
2018-03-27T03:29:31.756Z,90.67
2018-03-27T03:31:59.152Z,91.82
2018-03-27T03:34:26.558Z,92.91
2018-03-27T03:36:53.942Z,93.73
2018-03-27T03:39:21.336Z,93.78
2018-03-27T03:41:48.733Z,92.92
2018-03-27T03:44:16.120Z,92.78
2018-03-27T03:46:43.520Z,92.54
2018-03-27T03:49:10.917Z,92.56
2018-03-27T03:51:38.313Z,92.96
2018-03-27T03:54:05.711Z,92.46
2018-03-27T03:56:33.104Z,92.02
2018-03-27T03:59:00.508Z,93.05
2018-03-27T04:01:27.896Z,93.98
2018-03-27T04:03:55.288Z,94.04
2018-03-27T04:06:22.689Z,93.25
2018-03-27T04:08:50.081Z,93.11
2018-03-27T04:11:17.481Z,94.36
2018-03-27T04:13:44.874Z,94.91
2018-03-27T04:16:12.270Z,94.07
2018-03-27T04:18:39.660Z,93.48
2018-03-27T04:21:07.093Z,93.73
2018-03-27T04:23:34.482Z,93.96
2018-03-27T04:26:01.895Z,93.80
2018-03-27T04:28:29.285Z,94.47
2018-03-27T04:30:56.689Z,95.05
2018-03-27T04:33:24.080Z,94.11
2018-03-27T04:35:51.468Z,93.72
2018-03-27T04:38:18.871Z,93.48
2018-03-27T04:40:46.316Z,93.79
2018-03-27T04:43:13.664Z,93.33
2018-03-27T04:45:41.061Z,93.09
2018-03-27T04:48:08.457Z,92.54
2018-03-27T04:50:35.848Z,92.61
2018-03-27T04:53:03.256Z,93.45
2018-03-27T04:55:30.647Z,93.10
2018-03-27T04:57:58.047Z,93.01
2018-03-27T05:00:25.448Z,93.02
2018-03-27T05:02:52.859Z,92.84
2018-03-27T05:05:20.233Z,92.73
2018-03-27T05:07:47.692Z,93.85
2018-03-27T05:10:15.088Z,94.06
2018-03-27T05:12:42.477Z,94.83
2018-03-27T05:15:09.877Z,94.77
2018-03-27T05:17:37.261Z,94.45
2018-03-27T05:20:04.661Z,94.24
2018-03-27T05:22:32.052Z,94.19
2018-03-27T05:24:59.436Z,94.26
2018-03-27T05:27:26.836Z,94.64
2018-03-27T05:29:54.228Z,94.10
2018-03-27T05:32:21.629Z,94.31
2018-03-27T05:34:49.020Z,94.84
2018-03-27T05:37:16.420Z,95.07
2018-03-27T05:39:43.813Z,94.87
2018-03-27T05:42:11.652Z,94.63
2018-03-27T05:44:39.146Z,95.34
2018-03-27T05:47:06.568Z,95.63
2018-03-27T05:49:33.965Z,95.58
2018-03-27T05:52:01.376Z,95.63
2018-03-27T05:54:28.768Z,95.20
2018-03-27T05:56:56.168Z,94.92
2018-03-27T05:59:23.578Z,94.59
2018-03-27T06:01:50.964Z,94.63
2018-03-27T06:04:18.359Z,93.92
2018-03-27T06:06:45.746Z,93.83
2018-03-27T06:09:13.154Z,94.12
2018-03-27T06:11:40.541Z,93.96
2018-03-27T06:14:07.981Z,94.02
2018-03-27T06:16:52.173Z,94.26
2018-03-27T06:19:19.573Z,94.75
2018-03-27T06:21:46.987Z,94.88
2018-03-27T06:24:14.369Z,95.05
2018-03-27T06:26:41.757Z,95.17
2018-03-27T06:29:09.168Z,95.37
2018-03-27T06:31:36.585Z,94.69
2018-03-27T06:34:03.971Z,94.57
2018-03-27T06:36:31.414Z,94.32
2018-03-27T06:38:58.810Z,94.40
2018-03-27T06:41:26.188Z,94.11
2018-03-27T06:43:53.577Z,93.80
2018-03-27T06:46:20.965Z,93.95
2018-03-27T06:48:48.364Z,93.94
2018-03-27T06:51:15.757Z,93.50
2018-03-27T06:53:43.161Z,93.11
2018-03-27T06:56:10.543Z,92.91
2018-03-27T06:58:37.936Z,92.58
2018-03-27T07:01:05.324Z,92.43
2018-03-27T07:03:32.750Z,92.05
2018-03-27T07:06:00.135Z,91.73
2018-03-27T07:08:27.573Z,91.41
2018-03-27T07:10:54.969Z,90.86
2018-03-27T07:13:22.401Z,90.01
2018-03-27T07:15:49.851Z,90.11
2018-03-27T07:18:17.220Z,90.03
2018-03-27T07:20:44.705Z,89.96
2018-03-27T07:23:12.072Z,89.72
2018-03-27T07:25:39.466Z,89.20
2018-03-27T07:28:06.856Z,89.58
2018-03-27T07:30:34.253Z,88.99
2018-03-27T07:33:01.623Z,88.47
2018-03-27T07:35:29.007Z,88.68
2018-03-27T07:37:56.401Z,87.67
2018-03-27T07:40:23.783Z,88.05
2018-03-27T07:42:51.172Z,87.83
2018-03-27T07:45:18.561Z,88.29
2018-03-27T07:47:45.944Z,88.09
2018-03-27T07:50:13.408Z,85.80
2018-03-27T07:52:40.792Z,86.45
2018-03-27T07:55:08.173Z,85.61
2018-03-27T07:57:35.565Z,83.93
2018-03-27T08:00:02.958Z,83.88
2018-03-27T08:02:30.345Z,84.52
2018-03-27T08:04:57.729Z,83.60
2018-03-27T08:07:25.127Z,83.29
2018-03-27T08:09:52.510Z,84.37
2018-03-27T08:12:19.905Z,84.24
2018-03-27T08:14:47.296Z,83.00
2018-03-27T08:17:14.679Z,80.65
2018-03-27T08:19:42.068Z,81.90
2018-03-27T08:22:09.465Z,80.40
2018-03-27T08:24:36.860Z,81.04
2018-03-27T08:27:04.240Z,81.59
2018-03-27T08:29:31.713Z,79.87
2018-03-27T08:31:59.114Z,78.63
2018-03-27T08:34:26.595Z,78.26
2018-03-27T08:36:54.135Z,78.43
2018-03-27T08:39:21.521Z,77.22
2018-03-27T08:41:48.912Z,77.25
2018-03-27T08:44:16.293Z,75.99
2018-03-27T08:46:43.684Z,74.32
2018-03-27T08:49:11.083Z,72.77
2018-03-27T08:51:38.472Z,72.88
2018-03-27T08:54:05.873Z,72.59
2018-03-27T08:56:33.327Z,73.12
2018-03-27T08:59:00.773Z,73.32
2018-03-27T09:01:28.196Z,70.69
2018-03-27T09:03:56.523Z,70.66
2018-03-27T09:06:23.928Z,69.91
2018-03-27T09:08:51.585Z,70.67
2018-03-27T09:11:18.961Z,69.78
2018-03-27T09:13:46.348Z,70.09
2018-03-27T09:16:14.817Z,70.05
2018-03-27T09:18:42.200Z,69.90
2018-03-27T09:21:09.585Z,68.12
2018-03-27T09:23:36.973Z,69.26
2018-03-27T09:26:04.448Z,65.42
2018-03-27T09:28:31.860Z,64.20
2018-03-27T09:30:59.236Z,64.11
2018-03-27T09:33:26.627Z,60.91
2018-03-27T09:35:54.020Z,61.69
2018-03-27T09:38:21.404Z,61.14
2018-03-27T09:40:49.523Z,60.62
2018-03-27T09:43:16.906Z,60.89
2018-03-27T09:45:44.296Z,59.12
2018-03-27T09:48:18.392Z,56.38
2018-03-27T09:50:45.775Z,54.72
2018-03-27T09:53:13.216Z,55.32
2018-03-27T09:55:40.598Z,53.30
2018-03-27T09:58:07.995Z,53.61
2018-03-27T10:00:41.026Z,52.82
2018-03-27T10:03:08.418Z,53.19
2018-03-27T10:05:35.797Z,52.90
2018-03-27T10:08:03.197Z,53.43
2018-03-27T10:10:30.577Z,53.83
2018-03-27T10:12:57.975Z,54.73
2018-03-27T10:15:25.366Z,53.39
2018-03-27T10:17:52.758Z,49.46
2018-03-27T10:20:20.149Z,51.17
2018-03-27T10:22:48.449Z,51.22
2018-03-27T10:25:15.840Z,48.74
2018-03-27T10:27:43.232Z,48.94
2018-03-27T10:30:10.625Z,49.01
2018-03-27T10:32:38.009Z,50.46
2018-03-27T10:35:05.389Z,51.50
2018-03-27T10:37:32.777Z,52.74
2018-03-27T10:40:00.164Z,53.01
2018-03-27T10:42:27.551Z,50.32
2018-03-27T10:44:54.936Z,50.05
2018-03-27T10:47:22.323Z,50.97
2018-03-27T10:49:49.744Z,49.25
2018-03-27T10:52:17.132Z,47.59
2018-03-27T10:54:44.512Z,47.14
2018-03-27T10:57:11.894Z,46.70
2018-03-27T10:59:39.282Z,44.01
2018-03-27T11:02:06.682Z,44.51
2018-03-27T11:04:34.074Z,44.76
2018-03-27T11:07:01.448Z,46.64
2018-03-27T11:09:28.830Z,47.70
2018-03-27T11:11:56.213Z,47.16
2018-03-27T11:14:23.591Z,46.56
2018-03-27T11:16:51.412Z,46.34
2018-03-27T11:19:18.797Z,45.82
2018-03-27T11:21:46.181Z,47.17
2018-03-27T11:24:13.574Z,45.91
2018-03-27T11:26:40.956Z,48.78
2018-03-27T11:29:08.353Z,46.26
2018-03-27T11:31:35.740Z,47.28
2018-03-27T11:34:03.131Z,47.51
2018-03-27T11:36:30.513Z,48.44
2018-03-27T11:38:57.896Z,47.40
2018-03-27T11:41:25.289Z,47.24
2018-03-27T11:43:52.672Z,46.52
2018-03-27T11:46:20.052Z,46.08
2018-03-27T11:48:47.449Z,45.76
2018-03-27T11:51:14.825Z,46.21
2018-03-27T11:53:42.220Z,44.68
2018-03-27T11:56:09.608Z,44.07
2018-03-27T11:58:36.995Z,44.43
2018-03-27T12:01:04.397Z,43.64
2018-03-27T12:03:31.776Z,45.20
2018-03-27T12:05:59.169Z,44.90
2018-03-27T12:08:26.552Z,43.64
2018-03-27T12:10:53.960Z,43.38
2018-03-27T12:13:21.341Z,44.10
2018-03-27T12:15:48.725Z,45.30
2018-03-27T12:18:16.113Z,45.48
2018-03-27T12:20:43.504Z,46.29
2018-03-27T12:23:10.884Z,42.99
2018-03-27T12:25:38.281Z,42.63
2018-03-27T12:28:05.660Z,43.28
2018-03-27T12:30:33.057Z,43.65
2018-03-27T12:33:00.436Z,44.38
2018-03-27T12:35:27.833Z,45.04
2018-03-27T12:37:55.216Z,44.83
2018-03-27T12:40:22.597Z,46.43
2018-03-27T12:42:49.992Z,47.38
2018-03-27T12:45:17.395Z,46.99
2018-03-27T12:47:44.810Z,47.11
2018-03-27T12:50:12.149Z,48.40
2018-03-27T12:52:39.544Z,50.26
2018-03-27T12:55:06.928Z,49.13
2018-03-27T12:57:34.913Z,50.46
2018-03-27T13:00:02.292Z,50.93
2018-03-27T13:02:29.684Z,49.73
2018-03-27T13:04:57.064Z,50.77
2018-03-27T13:07:24.452Z,50.63
2018-03-27T13:09:51.835Z,50.78
2018-03-27T13:12:19.227Z,51.17
2018-03-27T13:14:46.612Z,51.07
2018-03-27T13:17:14.000Z,51.87
2018-03-27T13:19:41.389Z,52.87
2018-03-27T13:22:08.779Z,53.39
2018-03-27T13:24:36.160Z,55.44
2018-03-27T13:27:03.548Z,55.19
2018-03-27T13:29:30.936Z,55.94
2018-03-27T13:31:58.332Z,56.62
2018-03-27T13:34:25.720Z,57.11
2018-03-27T13:36:53.116Z,56.87
2018-03-27T13:39:20.500Z,56.48
2018-03-27T13:41:47.896Z,57.14
2018-03-27T13:44:15.290Z,58.16
2018-03-27T13:46:42.895Z,59.02
2018-03-27T13:49:10.284Z,58.00
2018-03-27T13:51:37.664Z,59.41
2018-03-27T13:54:05.065Z,59.18
2018-03-27T13:56:32.448Z,58.94
2018-03-27T13:58:59.844Z,60.14
2018-03-27T14:01:27.237Z,60.25
2018-03-27T14:03:54.628Z,59.91
2018-03-27T14:06:22.017Z,60.53
2018-03-27T14:08:49.404Z,59.73
2018-03-27T14:11:16.867Z,61.20
2018-03-27T14:13:44.183Z,63.23
2018-03-27T14:16:11.572Z,63.54
2018-03-27T14:18:38.953Z,64.07
2018-03-27T14:21:06.344Z,65.05
2018-03-27T14:23:33.724Z,64.75
2018-03-27T14:26:01.116Z,66.30
2018-03-27T14:28:28.502Z,66.89
2018-03-27T14:30:55.884Z,68.83
2018-03-27T14:33:23.264Z,67.56
2018-03-27T14:35:50.648Z,67.00
2018-03-27T14:38:18.084Z,68.68
2018-03-27T14:40:45.424Z,68.31
2018-03-27T14:43:12.823Z,69.27
2018-03-27T14:45:40.197Z,71.17
2018-03-27T14:48:07.600Z,70.00
2018-03-27T14:50:34.974Z,71.47
2018-03-27T14:53:02.386Z,71.61
2018-03-27T14:55:29.765Z,72.16
2018-03-27T14:57:57.165Z,75.29
2018-03-27T15:00:24.548Z,75.68
2018-03-27T15:02:51.948Z,76.18
2018-03-27T15:05:19.337Z,77.05
2018-03-27T15:07:46.759Z,76.78
2018-03-27T15:10:14.153Z,76.67
2018-03-27T15:12:41.529Z,77.01
2018-03-27T15:15:08.916Z,77.83
2018-03-27T15:17:36.309Z,76.08
2018-03-27T15:20:03.684Z,77.76
2018-03-27T15:22:31.065Z,77.66
2018-03-27T15:24:58.456Z,77.89
2018-03-27T15:27:25.856Z,78.96
2018-03-27T15:29:53.252Z,79.41
2018-03-27T15:32:20.628Z,80.94
2018-03-27T15:34:48.029Z,79.54
2018-03-27T15:37:15.400Z,80.73
2018-03-27T15:39:42.850Z,81.21
2018-03-27T15:42:10.201Z,82.30
2018-03-27T15:44:37.596Z,83.09
2018-03-27T15:47:04.986Z,83.66
2018-03-27T15:49:32.434Z,83.10
2018-03-27T15:51:59.808Z,83.96
2018-03-27T15:54:27.204Z,84.86
2018-03-27T15:56:54.587Z,85.90
2018-03-27T15:59:21.993Z,86.73
2018-03-27T16:01:49.368Z,85.16
2018-03-27T16:04:16.760Z,85.46
2018-03-27T16:06:44.145Z,86.22
2018-03-27T16:09:11.524Z,86.30
2018-03-27T16:11:38.916Z,86.67
2018-03-27T16:14:07.199Z,87.66
2018-03-27T16:16:34.612Z,87.85
2018-03-27T16:19:02.005Z,88.56
2018-03-27T16:21:29.388Z,89.19
2018-03-27T16:23:56.769Z,90.37
2018-03-27T16:26:24.209Z,90.31
2018-03-27T16:28:51.601Z,90.45
2018-03-27T16:31:19.010Z,90.58
2018-03-27T16:33:46.405Z,90.56
2018-03-27T16:36:13.788Z,91.26
2018-03-27T16:38:41.168Z,90.77
2018-03-27T16:41:08.556Z,91.99
2018-03-27T16:43:35.930Z,92.98
2018-03-27T16:46:03.324Z,93.22
2018-03-27T16:48:30.701Z,92.83
2018-03-27T16:50:58.085Z,92.67
2018-03-27T16:53:25.479Z,92.27
2018-03-27T16:55:52.849Z,92.12
2018-03-27T16:58:20.243Z,92.19
2018-03-27T17:00:47.695Z,92.74
2018-03-27T17:03:15.081Z,92.46
2018-03-27T17:05:42.458Z,92.58
2018-03-27T17:08:09.868Z,92.65
2018-03-27T17:10:38.272Z,92.49
2018-03-27T17:13:05.716Z,92.63
2018-03-27T17:15:33.789Z,92.56
2018-03-27T17:18:01.331Z,92.95
2018-03-27T17:20:29.728Z,92.91
2018-03-27T17:22:57.116Z,91.44
2018-03-27T17:25:24.503Z,92.38
2018-03-27T17:27:51.898Z,92.65
2018-03-27T17:30:19.268Z,92.78
2018-03-27T17:32:46.644Z,93.18
2018-03-27T17:35:14.136Z,93.38
2018-03-27T17:37:41.510Z,94.61
2018-03-27T17:40:08.912Z,95.20
2018-03-27T17:42:36.291Z,94.69
2018-03-27T17:45:03.714Z,94.82
2018-03-27T17:47:31.126Z,94.92
2018-03-27T17:49:58.476Z,95.20
2018-03-27T17:52:25.853Z,95.39
2018-03-27T17:54:54.137Z,95.60
2018-03-27T17:57:21.540Z,95.46
2018-03-27T17:59:50.096Z,95.64
2018-03-27T18:02:17.513Z,96.37
2018-03-27T18:04:44.904Z,96.64
2018-03-27T18:07:12.328Z,97.10
2018-03-27T18:09:40.396Z,96.85
2018-03-27T18:12:07.784Z,96.66
2018-03-27T18:14:35.278Z,96.89
2018-03-27T18:17:02.733Z,97.03
2018-03-27T18:19:31.077Z,97.01
2018-03-27T18:21:58.457Z,97.59
2018-03-27T18:24:26.272Z,97.49
2018-03-27T18:26:53.899Z,96.93
2018-03-27T18:29:21.388Z,96.58
2018-03-27T18:31:48.928Z,96.86
2018-03-27T18:34:17.504Z,97.05
2018-03-27T18:36:44.894Z,97.00
2018-03-27T18:39:12.341Z,96.88
2018-03-27T18:41:39.733Z,96.91
2018-03-27T18:44:07.148Z,96.90
2018-03-27T18:46:34.543Z,97.31
2018-03-27T18:49:01.996Z,97.34
2018-03-27T18:51:29.377Z,97.91
2018-03-27T18:53:56.801Z,97.27
2018-03-27T18:56:24.263Z,97.61
2018-03-27T18:58:51.712Z,97.81
2018-03-27T19:01:19.089Z,97.95
2018-03-27T19:03:46.477Z,97.89
2018-03-27T19:06:13.862Z,97.90
2018-03-27T19:08:41.265Z,97.94
2018-03-27T19:11:08.645Z,97.74
2018-03-27T19:13:36.048Z,97.88
2018-03-27T19:16:03.522Z,97.61
2018-03-27T19:18:30.859Z,97.41
2018-03-27T19:20:58.240Z,97.51
2018-03-27T19:23:25.741Z,97.77
2018-03-27T19:25:53.162Z,97.51
2018-03-27T19:28:20.925Z,97.37
2018-03-27T19:30:48.303Z,97.83
2018-03-27T19:33:15.677Z,97.65
2018-03-27T19:35:43.065Z,97.36
2018-03-27T19:38:10.436Z,97.43
2018-03-27T19:40:37.826Z,97.53
2018-03-27T19:43:05.200Z,97.29
2018-03-27T19:45:32.586Z,97.30
2018-03-27T19:47:59.964Z,97.32
2018-03-27T19:50:27.348Z,97.30
2018-03-27T19:52:54.724Z,97.33
2018-03-27T19:55:22.110Z,97.87
2018-03-27T19:57:49.486Z,97.75
2018-03-27T20:00:16.876Z,97.54
2018-03-27T20:02:44.254Z,97.62
2018-03-27T20:05:11.640Z,98.18
2018-03-27T20:07:39.030Z,98.18
2018-03-27T20:10:06.409Z,98.19
2018-03-27T20:12:33.792Z,98.50
2018-03-27T20:15:01.168Z,98.67
2018-03-27T20:17:28.558Z,98.37
2018-03-27T20:19:55.943Z,98.93
2018-03-27T20:22:23.333Z,99.05
2018-03-27T20:24:50.725Z,99.23
2018-03-27T20:27:18.155Z,99.01
2018-03-27T20:29:45.488Z,98.96
2018-03-27T20:32:12.868Z,98.70
2018-03-27T20:34:40.249Z,98.39
2018-03-27T20:37:07.637Z,98.75
2018-03-27T20:39:35.021Z,98.94
2018-03-27T20:42:02.400Z,98.94
2018-03-27T20:44:29.777Z,98.96
2018-03-27T20:46:57.179Z,98.98
2018-03-27T20:49:24.540Z,98.88
2018-03-27T20:51:51.935Z,99.08
2018-03-27T20:54:19.312Z,98.89
2018-03-27T20:56:46.750Z,99.10
2018-03-27T20:59:14.087Z,99.32
2018-03-27T21:01:41.460Z,99.13
2018-03-27T21:04:08.851Z,99.10
2018-03-27T21:06:36.220Z,99.48
2018-03-27T21:09:03.620Z,100.00
2018-03-27T21:11:30.996Z,99.79
2018-03-27T21:13:58.380Z,100.00
2018-03-27T21:16:25.763Z,100.00
2018-03-27T21:18:53.152Z,100.00
2018-03-27T21:21:20.545Z,100.00
2018-03-27T21:23:47.933Z,100.00
2018-03-27T21:26:15.309Z,99.78
2018-03-27T21:28:42.700Z,99.82
2018-03-27T21:31:10.084Z,99.76
2018-03-27T21:33:37.456Z,99.52
2018-03-27T21:36:04.844Z,100.00
2018-03-27T21:38:32.245Z,100.00
2018-03-27T21:40:59.630Z,100.00
2018-03-27T21:43:27.012Z,100.00
2018-03-27T21:45:54.401Z,100.00
2018-03-27T21:48:21.786Z,100.00
2018-03-27T21:50:49.173Z,100.00
2018-03-27T21:53:16.552Z,100.00
2018-03-27T21:55:43.943Z,100.00
2018-03-27T21:58:11.363Z,100.00
2018-03-27T22:00:38.722Z,100.00
2018-03-27T22:03:06.101Z,100.00
2018-03-27T22:05:33.492Z,100.00
2018-03-27T22:08:00.871Z,100.00
2018-03-27T22:10:28.272Z,100.00
2018-03-27T22:12:55.656Z,99.99
2018-03-27T22:15:23.040Z,99.84
2018-03-27T22:17:50.420Z,99.57
2018-03-27T22:20:17.797Z,99.72
2018-03-27T22:22:45.183Z,99.72
2018-03-27T22:25:12.560Z,99.76
2018-03-27T22:27:39.944Z,99.55
2018-03-27T22:30:07.325Z,99.92
2018-03-27T22:32:34.716Z,99.93
2018-03-27T22:35:02.088Z,99.89
2018-03-27T22:37:29.477Z,99.96
2018-03-27T22:39:56.869Z,99.80
2018-03-27T22:42:24.244Z,99.84
2018-03-27T22:44:51.628Z,99.61
2018-03-27T22:47:19.017Z,99.59
2018-03-27T22:49:46.397Z,99.52
2018-03-27T22:52:13.783Z,99.52
2018-03-27T22:54:41.174Z,99.58
2018-03-27T22:57:08.545Z,99.66
2018-03-27T22:59:35.924Z,99.55
2018-03-27T23:02:03.304Z,99.35
2018-03-27T23:04:30.692Z,99.54
2018-03-27T23:06:58.071Z,99.86
2018-03-27T23:09:25.676Z,99.70
2018-03-27T23:11:53.291Z,99.70
2018-03-27T23:14:20.672Z,99.42
2018-03-27T23:16:48.063Z,99.28
2018-03-27T23:19:15.445Z,99.56
2018-03-27T23:21:42.820Z,99.69
2018-03-27T23:24:10.210Z,99.69
2018-03-27T23:26:37.591Z,99.62
2018-03-27T23:29:04.972Z,99.75
2018-03-27T23:31:32.348Z,99.59
2018-03-27T23:33:59.736Z,99.48
2018-03-27T23:36:27.112Z,99.13
2018-03-27T23:38:54.491Z,99.25
2018-03-27T23:41:21.888Z,99.47
2018-03-27T23:43:49.269Z,99.42
2018-03-27T23:46:16.663Z,99.61
2018-03-27T23:48:44.036Z,99.71
2018-03-27T23:51:11.429Z,99.68
2018-03-27T23:53:38.803Z,99.73
2018-03-27T23:56:06.187Z,99.46
2018-03-27T23:58:33.561Z,99.25
